Time;durP1;ratioP1;P1;durP2;ratioP2;P2;SDS_P1;SDS_P2;PMS_P1;PMS_P2;Temp;Humidity;BMP_temperature;BMP_pressure;BME280_temperature;BME280_humidity;BME280_pressure;Samples;Min_cycle;Max_cycle;Signal;HPM_P1;HPM_P2
2022/09/30 00:01:42;;;;;;;4.68;2.95;;;;;;;8.07;100.00;95688.34;5066905;28;20131;-66
2022/09/30 00:04:19;;;;;;;4.15;3.15;;;;;;;8.14;100.00;95693.06;5070634;28;20130;-66
2022/09/30 00:06:45;;;;;;;10.40;4.97;;;;;;;8.22;100.00;95690.03;5069094;28;20028;-66
2022/09/30 00:09:11;;;;;;;8.30;3.50;;;;;;;8.19;100.00;95690.81;5070685;28;20036;-66
2022/09/30 00:11:38;;;;;;;10.90;4.68;;;;;;;8.25;100.00;95691.25;5060380;28;20071;-67
2022/09/30 00:14:04;;;;;;;7.07;4.25;;;;;;;8.34;100.00;95689.00;5067735;28;20043;-66
2022/09/30 00:16:33;;;;;;;8.40;4.38;;;;;;;8.40;100.00;95697.59;5070104;28;20035;-66
2022/09/30 00:18:59;;;;;;;7.78;3.50;;;;;;;8.44;100.00;95694.94;5069838;28;20067;-66
2022/09/30 00:21:27;;;;;;;4.20;3.33;;;;;;;8.44;100.00;95694.94;5070522;28;20074;-66
2022/09/30 00:23:54;;;;;;;4.60;2.72;;;;;;;8.38;100.00;95694.47;5069344;28;20020;-66
2022/09/30 00:26:22;;;;;;;4.53;2.95;;;;;;;8.25;100.00;95702.16;5069360;28;20035;-66
2022/09/30 00:28:54;;;;;;;4.63;2.80;;;;;;;8.00;100.00;95702.69;5084190;28;20048;-66
2022/09/30 00:31:21;;;;;;;3.90;2.90;;;;;;;7.85;100.00;95706.44;5070829;28;20070;-66
2022/09/30 00:34:06;;;;;;;6.07;3.10;;;;;;;7.87;100.00;95709.56;5070195;28;20042;-65
2022/09/30 00:36:42;;;;;;;11.48;3.47;;;;;;;7.84;100.00;95713.81;5067583;28;20497;-65
2022/09/30 00:39:14;;;;;;;8.30;3.70;;;;;;;7.76;100.00;95709.47;5069255;28;20035;-65
2022/09/30 00:41:41;;;;;;;5.82;4.15;;;;;;;7.76;100.00;95720.34;5068064;28;20040;-64
2022/09/30 00:44:44;;;;;;;8.40;3.60;;;;;;;7.81;100.00;95714.59;5065164;28;20055;-66
2022/09/30 00:47:37;;;;;;;6.78;4.00;;;;;;;7.75;100.00;95715.28;5067049;28;20773;-65
2022/09/30 00:50:26;;;;;;;12.18;4.28;;;;;;;7.70;100.00;95710.16;5076739;28;20039;-65
2022/09/30 00:52:58;;;;;;;5.88;3.80;;;;;;;7.66;100.00;95719.06;5074774;28;20032;-66
2022/09/30 00:55:55;;;;;;;6.85;4.72;;;;;;;7.66;100.00;95710.13;5073942;28;20036;-66
2022/09/30 00:58:27;;;;;;;5.40;3.83;;;;;;;7.70;100.00;95716.38;5074164;28;20055;-66
2022/09/30 01:00:54;;;;;;;9.45;5.38;;;;;;;7.68;100.00;95715.19;5072240;28;20103;-66
2022/09/30 01:03:21;;;;;;;8.27;5.13;;;;;;;7.60;100.00;95720.56;5074235;28;20021;-65
2022/09/30 01:05:48;;;;;;;8.80;5.22;;;;;;;7.59;100.00;95715.47;5073543;28;20052;-68
2022/09/30 01:08:17;;;;;;;8.65;5.47;;;;;;;7.59;100.00;95718.19;5073483;28;20119;-65
2022/09/30 01:10:43;;;;;;;6.30;4.87;;;;;;;7.65;100.00;95720.22;5074128;28;20484;-65
2022/09/30 01:13:09;;;;;;;5.50;4.57;;;;;;;7.78;100.00;95720.00;5071361;28;20719;-65
2022/09/30 01:16:05;;;;;;;6.68;4.68;;;;;;;7.92;100.00;95725.56;5073813;28;20032;-66
2022/09/30 01:18:58;;;;;;;10.98;6.10;;;;;;;7.90;100.00;95719.72;5074611;28;20044;-66
2022/09/30 01:21:45;;;;;;;9.88;6.53;;;;;;;7.80;100.00;95720.41;5080850;28;20104;-67
2022/09/30 01:24:41;;;;;;;10.00;6.78;;;;;;;7.76;100.00;95728.53;5082161;28;20111;-67
2022/09/30 01:27:22;;;;;;;8.85;5.70;;;;;;;7.76;100.00;95723.09;5071716;28;20036;-66
2022/09/30 01:30:05;;;;;;;7.85;6.10;;;;;;;7.66;100.00;95723.75;5073827;28;20060;-66
2022/09/30 01:32:49;;;;;;;9.35;5.80;;;;;;;7.65;100.00;95731.13;5069953;28;20127;-66
2022/09/30 01:35:23;;;;;;;10.95;6.45;;;;;;;7.63;100.00;95728.00;5070319;28;20032;-66
2022/09/30 01:38:08;;;;;;;11.40;7.50;;;;;;;7.64;100.00;95731.50;5071616;28;20017;-64
2022/09/30 01:40:48;;;;;;;10.35;6.15;;;;;;;7.71;100.00;95722.63;5072219;28;20514;-66
2022/09/30 01:43:28;;;;;;;;;;;;;;;7.90;100.00;95719.72;5071891;28;20021;-66
2022/09/30 01:46:04;;;;;;;10.52;7.13;;;;;;;8.04;100.00;95719.88;5070300;28;19912;-66
2022/09/30 01:48:55;;;;;;;11.52;7.32;;;;;;;8.12;100.00;95728.13;5071071;28;20025;-66
2022/09/30 01:51:36;;;;;;;10.07;6.15;;;;;;;8.18;100.00;95727.41;5071464;28;20029;-67
2022/09/30 01:54:30;;;;;;;10.45;7.40;;;;;;;8.22;100.00;95727.44;5074405;28;20092;-66
2022/09/30 01:57:12;;;;;;;9.82;6.50;;;;;;;8.25;100.00;95721.25;5070854;28;20032;-65
2022/09/30 01:59:47;;;;;;;9.48;5.85;;;;;;;8.33;100.00;95727.56;5074486;28;20304;-65
2022/09/30 02:02:20;;;;;;;8.60;5.22;;;;;;;8.35;100.00;95726.00;5073580;28;20020;-67
2022/09/30 02:05:01;;;;;;;11.65;5.63;;;;;;;8.42;100.00;95725.31;5067061;28;20028;-65
2022/09/30 02:07:34;;;;;;;10.25;6.30;;;;;;;8.37;100.00;95723.72;5070847;28;20107;-65
2022/09/30 02:10:05;;;;;;;11.13;6.70;;;;;;;8.27;100.00;95720.88;5074718;28;20388;-65
2022/09/30 02:12:36;;;;;;;11.52;6.18;;;;;;;8.24;100.00;95725.91;5075321;28;20082;-66
2022/09/30 02:15:08;;;;;;;7.32;5.88;;;;;;;8.29;100.00;95732.97;5079319;28;20036;-66
2022/09/30 02:17:44;;;;;;;9.85;6.75;;;;;;;8.32;100.00;95732.25;5078920;28;20020;-66
2022/09/30 02:20:19;;;;;;;8.52;6.03;;;;;;;8.36;100.00;95733.03;5077846;28;20028;-65
2022/09/30 02:22:49;;;;;;;9.50;6.95;;;;;;;8.42;100.00;95733.50;5080153;28;20112;-65
2022/09/30 02:25:19;;;;;;;;;;;;;;;8.44;100.00;95739.38;5079097;28;20064;-65
2022/09/30 02:27:52;;;;;;;8.70;6.35;;;;;;;8.46;100.00;95739.78;5078569;28;19916;-64
2022/09/30 02:30:18;;;;;;;9.55;6.40;;;;;;;8.23;100.00;95743.44;5073761;28;20025;-65
2022/09/30 02:33:00;;;;;;;9.60;6.85;;;;;;;8.01;100.00;95742.44;5070739;28;20033;-65
2022/09/30 02:35:31;;;;;;;9.60;6.97;;;;;;;7.87;100.00;95742.28;5071388;28;20031;-64
2022/09/30 02:38:02;;;;;;;10.40;7.75;;;;;;;7.81;100.00;95743.75;5072649;28;20431;-65
2022/09/30 02:40:35;;;;;;;12.05;7.50;;;;;;;7.77;100.00;95753.84;5070717;28;20032;-65
2022/09/30 02:43:03;;;;;;;10.45;7.72;;;;;;;7.77;100.00;95756.56;5072164;28;20036;-65
2022/09/30 02:45:35;;;;;;;11.07;7.70;;;;;;;7.77;100.00;95746.44;5070510;28;20029;-65
2022/09/30 02:48:31;;;;;;;14.93;7.65;;;;;;;7.76;100.00;95758.53;5072418;28;20024;-66
2022/09/30 02:51:05;;;;;;;12.40;7.57;;;;;;;7.72;100.00;95757.69;5060183;28;20112;-65
2022/09/30 02:53:41;;;;;;;15.88;8.70;;;;;;;7.68;100.00;95758.81;5068880;28;20021;-65
2022/09/30 02:56:22;;;;;;;12.27;8.00;;;;;;;7.66;100.00;95749.03;5072631;28;20039;-65
2022/09/30 02:58:50;;;;;;;14.77;8.55;;;;;;;7.69;100.00;95746.72;5081982;28;20028;-64
2022/09/30 03:01:16;;;;;;;12.25;7.82;;;;;;;7.72;100.00;95752.22;5084751;28;20032;-66
2022/09/30 03:03:56;;;;;;;11.88;7.57;;;;;;;7.84;100.00;95759.38;5076688;28;20032;-65
2022/09/30 03:06:21;;;;;;;;;;;;;;;7.81;100.00;95766.38;5072654;28;20032;-66
2022/09/30 03:08:47;;;;;;;10.32;7.78;;;;;;;7.65;100.00;95763.84;5072563;28;19913;-64
2022/09/30 03:11:17;;;;;;;13.50;8.30;;;;;;;7.58;100.00;95762.94;5072506;28;20064;-66
2022/09/30 03:14:24;;;;;;;16.10;8.68;;;;;;;7.52;100.00;95767.94;5070742;28;20047;-65
2022/09/30 03:16:55;;;;;;;12.52;8.88;;;;;;;7.53;100.00;95772.25;5067185;28;20075;-65
2022/09/30 03:19:30;;;;;;;12.20;8.52;;;;;;;7.54;100.00;95779.25;5072203;28;20154;-66
2022/09/30 03:22:11;;;;;;;11.55;7.35;;;;;;;7.62;100.00;95780.16;5084861;28;20024;-66
2022/09/30 03:24:49;;;;;;;11.90;7.00;;;;;;;7.84;100.00;95778.47;5069748;28;20025;-66
2022/09/30 03:27:39;;;;;;;8.95;6.93;;;;;;;7.93;100.00;95789.09;5069214;28;20031;-67
2022/09/30 03:30:12;;;;;;;8.90;6.75;;;;;;;7.91;100.00;95784.00;5069579;28;20020;-67
2022/09/30 03:33:01;;;;;;;10.30;6.65;;;;;;;7.94;100.00;95783.28;5067278;28;20028;-66
2022/09/30 03:35:49;;;;;;;11.23;8.07;;;;;;;7.95;100.00;95792.22;5070850;28;20108;-67
2022/09/30 03:38:29;;;;;;;9.48;7.13;;;;;;;7.96;100.00;95788.31;5069447;28;20071;-66
2022/09/30 03:41:11;;;;;;;11.98;6.93;;;;;;;8.09;100.00;95794.34;5069125;28;20511;-66
2022/09/30 03:43:42;;;;;;;8.68;6.85;;;;;;;8.18;100.00;95789.38;5069025;28;20101;-66
2022/09/30 03:46:22;;;;;;;10.45;7.22;;;;;;;8.23;100.00;95791.78;5070602;28;20111;-67
2022/09/30 03:48:52;;;;;;;11.32;7.93;;;;;;;8.28;100.00;95796.88;5071639;28;20028;-66
2022/09/30 03:51:19;;;;;;;9.70;7.13;;;;;;;8.28;100.00;95793.38;5070697;28;20094;-67
2022/09/30 03:53:48;;;;;;;12.02;7.15;;;;;;;8.22;100.00;95796.44;5071273;28;20040;-66
2022/09/30 03:56:13;;;;;;;16.27;8.45;;;;;;;8.23;100.00;95802.69;5067607;28;20074;-67
2022/09/30 03:58:43;;;;;;;13.27;8.55;;;;;;;8.19;100.00;95804.56;5071319;28;20107;-67
2022/09/30 04:01:20;;;;;;;13.02;8.23;;;;;;;8.08;100.00;95809.13;5071031;28;20040;-67
2022/09/30 04:03:52;;;;;;;17.08;9.07;;;;;;;7.97;100.00;95809.00;5070719;28;20025;-65
2022/09/30 04:06:23;;;;;;;12.85;9.15;;;;;;;7.96;100.00;95812.88;5071377;28;20024;-66
2022/09/30 04:08:49;;;;;;;10.43;7.80;;;;;;;7.82;100.00;95814.28;5071377;28;20111;-66
2022/09/30 04:11:15;;;;;;;13.40;8.93;;;;;;;7.82;100.00;95817.00;5069829;28;20112;-65
2022/09/30 04:13:41;;;;;;;9.80;7.50;;;;;;;7.88;100.00;95809.28;5069666;28;20029;-66
2022/09/30 04:16:07;;;;;;;10.70;7.65;;;;;;;7.98;100.00;95814.09;5070360;28;20093;-65
2022/09/30 04:18:37;;;;;;;8.85;6.63;;;;;;;7.88;100.00;95806.56;5070288;28;20439;-68
2022/09/30 04:21:08;;;;;;;10.02;6.93;;;;;;;7.96;100.00;95808.22;5071109;28;20032;-65
2022/09/30 04:23:35;;;;;;;7.43;5.25;;;;;;;8.09;100.00;95806.03;5068549;28;20052;-66
2022/09/30 04:26:01;;;;;;;9.27;4.72;;;;;;;8.22;100.00;95801.88;5069818;28;20027;-65
2022/09/30 04:28:26;;;;;;;10.75;5.53;;;;;;;8.32;100.00;95796.91;5066075;28;20036;-65
2022/09/30 04:30:52;;;;;;;6.05;4.15;;;;;;;8.28;100.00;95794.16;5073646;28;20032;-65
2022/09/30 04:33:17;;;;;;;6.75;4.18;;;;;;;8.27;100.00;95800.00;5074962;28;20040;-65
2022/09/30 04:35:42;;;;;;;7.63;4.32;;;;;;;8.20;100.00;95790.56;5077031;28;20036;-65
2022/09/30 04:38:08;;;;;;;9.30;5.20;;;;;;;8.10;100.00;95804.06;5075509;28;20040;-66
2022/09/30 04:40:37;;;;;;;7.63;4.90;;;;;;;7.82;100.00;95799.88;5064319;28;20032;-67
2022/09/30 04:43:04;;;;;;;9.90;5.75;;;;;;;7.70;100.00;95805.53;5072027;28;20035;-66
2022/09/30 04:45:29;;;;;;;8.20;4.82;;;;;;;7.69;100.00;95801.25;5071030;28;20100;-67
2022/09/30 04:47:55;;;;;;;9.68;5.63;;;;;;;7.81;100.00;95798.28;5068477;28;20170;-67
2022/09/30 04:50:20;;;;;;;10.18;4.85;;;;;;;7.91;100.00;95811.28;5072010;28;20025;-66
2022/09/30 04:52:46;;;;;;;7.00;5.22;;;;;;;7.88;100.00;95819.41;5071314;28;20107;-65
2022/09/30 04:55:12;;;;;;;9.55;6.28;;;;;;;7.85;100.00;95820.94;5070980;28;20028;-66
2022/09/30 04:57:37;;;;;;;14.52;10.48;;;;;;;7.69;100.00;95821.13;5067802;28;20632;-65
2022/09/30 05:00:04;;;;;;;16.23;10.57;;;;;;;7.69;100.00;95826.56;5069764;28;20040;-66
2022/09/30 05:02:30;;;;;;;16.25;10.00;;;;;;;7.69;100.00;95836.66;5069834;28;20142;-67
2022/09/30 05:04:56;;;;;;;22.35;10.82;;;;;;;7.62;100.00;95826.47;5063741;28;20542;-66
2022/09/30 05:07:21;;;;;;;16.38;10.90;;;;;;;7.53;100.00;95829.47;5068872;28;20028;-66
2022/09/30 05:09:47;;;;;;;18.83;11.73;;;;;;;7.50;100.00;95832.91;5075674;28;20025;-66
2022/09/30 05:12:14;;;;;;;16.50;10.60;;;;;;;7.62;100.00;95848.28;5077630;28;20081;-66
2022/09/30 05:14:40;;;;;;;17.25;11.75;;;;;;;7.57;100.00;95854.81;5069875;28;20040;-65
2022/09/30 05:17:05;;;;;;;17.52;11.77;;;;;;;7.58;100.00;95858.31;5068490;28;20107;-66
2022/09/30 05:19:31;;;;;;;21.48;13.38;;;;;;;7.59;100.00;95854.44;5067824;28;20040;-66
2022/09/30 05:21:56;;;;;;;20.83;12.73;;;;;;;7.52;100.00;95859.81;5070607;28;20024;-66
2022/09/30 05:24:22;;;;;;;21.75;13.52;;;;;;;7.58;100.00;95861.03;5070759;28;20082;-66
2022/09/30 05:26:47;;;;;;;20.65;13.23;;;;;;;7.68;100.00;95854.97;5068516;28;20033;-65
2022/09/30 05:29:13;;;;;;;15.85;11.75;;;;;;;7.83;100.00;95862.19;5070575;28;20103;-66
2022/09/30 05:31:38;;;;;;;16.95;11.50;;;;;;;7.96;100.00;95857.31;5070157;28;20029;-66
2022/09/30 05:34:04;;;;;;;15.05;10.88;;;;;;;7.99;100.00;95859.28;5069187;28;20430;-65
2022/09/30 05:36:29;;;;;;;15.30;10.27;;;;;;;8.10;100.00;95875.00;5069076;28;20028;-65
2022/09/30 05:38:55;;;;;;;13.52;9.50;;;;;;;8.14;100.00;95878.53;5071451;28;20077;-66
2022/09/30 05:41:21;;;;;;;12.73;8.82;;;;;;;8.14;100.00;95882.06;5067345;28;20036;-66
2022/09/30 05:43:47;;;;;;;12.32;9.07;;;;;;;8.11;100.00;95885.53;5072637;28;20037;-65
2022/09/30 05:46:14;;;;;;;14.43;9.35;;;;;;;8.15;100.00;95888.31;5073106;28;20036;-65
2022/09/30 05:48:40;;;;;;;10.25;7.70;;;;;;;8.27;100.00;95890.81;5074496;28;20550;-65
2022/09/30 05:51:06;;;;;;;12.00;8.43;;;;;;;8.37;100.00;95900.25;5074519;28;20024;-66
2022/09/30 05:53:33;;;;;;;12.68;8.57;;;;;;;8.45;100.00;95890.28;5067515;28;20036;-66
2022/09/30 05:55:59;;;;;;;12.50;8.75;;;;;;;8.41;100.00;95893.69;5071783;28;20056;-66
2022/09/30 05:58:26;;;;;;;10.75;8.15;;;;;;;8.41;100.00;95892.94;5073847;28;20055;-66
2022/09/30 06:00:52;;;;;;;8.68;6.63;;;;;;;8.52;100.00;95901.25;5068639;28;20032;-66
2022/09/30 06:03:17;;;;;;;8.93;6.32;;;;;;;8.54;100.00;95902.44;5072559;28;20508;-66
2022/09/30 06:05:44;;;;;;;12.52;7.18;;;;;;;8.52;100.00;95904.00;5072121;28;20366;-66
2022/09/30 06:08:10;;;;;;;15.52;7.20;;;;;;;8.54;100.00;95916.09;5073431;28;20062;-66
2022/09/30 06:10:39;;;;;;;11.35;6.80;;;;;;;8.59;100.00;95912.25;5066908;28;20028;-66
2022/09/30 06:13:04;;;;;;;10.98;7.32;;;;;;;8.61;100.00;95910.72;5072122;28;20505;-65
2022/09/30 06:15:30;;;;;;;12.55;8.00;;;;;;;8.68;100.00;95910.03;5072529;28;20039;-66
2022/09/30 06:17:57;;;;;;;12.65;7.85;;;;;;;8.64;100.00;95917.38;5071988;28;20033;-66
2022/09/30 06:20:22;;;;;;;10.25;6.97;;;;;;;8.70;100.00;95915.13;5073170;28;20021;-65
2022/09/30 06:22:47;;;;;;;8.93;6.35;;;;;;;8.83;100.00;95927.34;5072759;28;20029;-66
2022/09/30 06:25:13;;;;;;;8.68;6.40;;;;;;;8.85;100.00;95924.22;5087259;28;20024;-64
2022/09/30 06:27:43;;;;;;;17.20;9.25;;;;;;;8.80;100.00;95936.25;5087525;28;20040;-66
2022/09/30 06:30:09;;;;;;;;;;;;;;;8.91;100.00;95939.13;5076384;28;20037;-66
2022/09/30 06:32:34;;;;;;;14.30;8.13;;;;;;;9.02;100.00;95940.03;5074631;28;20260;-66
2022/09/30 06:35:01;;;;;;;17.70;7.80;;;;;;;9.15;100.00;95937.81;5086419;28;20028;-66
2022/09/30 06:37:27;;;;;;;15.10;7.80;;;;;;;9.17;100.00;95941.72;5074023;28;20089;-66
2022/09/30 06:39:53;;;;;;;9.85;7.57;;;;;;;9.22;100.00;95945.28;5072055;28;20033;-66
2022/09/30 06:42:19;;;;;;;12.73;9.40;;;;;;;8.92;100.00;95946.94;5067236;28;20127;-66
2022/09/30 06:44:44;;;;;;;19.33;14.05;;;;;;;8.85;100.00;95946.84;5068109;28;20152;-65
2022/09/30 06:47:12;;;;;;;17.67;15.77;;;;;;;8.67;100.00;95941.19;5072129;28;20063;-66
2022/09/30 06:49:37;;;;;;;13.20;9.95;;;;;;;8.64;100.00;95946.63;5070317;28;20040;-66
2022/09/30 06:52:03;;;;;;;20.17;9.30;;;;;;;8.68;100.00;95950.16;5072593;28;20036;-66
2022/09/30 06:54:28;;;;;;;12.35;9.30;;;;;;;8.58;100.00;95941.47;5073205;28;20032;-66
2022/09/30 06:56:56;;;;;;;19.70;14.27;;;;;;;8.52;100.00;95944.94;5072563;28;20029;-66
2022/09/30 06:59:22;;;;;;;15.05;10.20;;;;;;;8.57;100.00;95948.13;5062380;28;20028;-66
2022/09/30 07:01:48;;;;;;;14.77;10.77;;;;;;;8.63;100.00;95942.34;5062617;28;20032;-65
2022/09/30 07:04:13;;;;;;;12.73;10.13;;;;;;;8.67;100.00;95948.59;5059734;28;20529;-66
2022/09/30 07:06:40;;;;;;;11.65;8.27;;;;;;;8.68;100.00;95945.50;5067907;28;20401;-66
2022/09/30 07:09:07;;;;;;;10.52;8.52;;;;;;;8.85;100.00;95948.81;5073159;28;20438;-65
2022/09/30 07:11:33;;;;;;;12.15;8.07;;;;;;;8.72;100.00;95945.56;5075099;28;20028;-65
2022/09/30 07:13:58;;;;;;;18.95;11.23;;;;;;;8.71;100.00;95944.75;5075424;28;20625;-65
2022/09/30 07:16:26;;;;;;;10.18;7.50;;;;;;;8.70;100.00;95947.88;5070118;28;20031;-65
2022/09/30 07:18:52;;;;;;;15.98;10.95;;;;;;;8.70;100.00;95954.09;5076224;28;20175;-63
2022/09/30 07:21:18;;;;;;;11.85;7.97;;;;;;;8.85;100.00;95957.78;5076774;28;20396;-64
2022/09/30 07:23:46;;;;;;;9.57;7.25;;;;;;;8.80;100.00;95958.09;5064473;28;20043;-65
2022/09/30 07:26:14;;;;;;;10.82;8.65;;;;;;;8.91;100.00;95963.69;5057244;28;20062;-65
2022/09/30 07:28:39;;;;;;;11.93;9.75;;;;;;;8.66;100.00;95964.22;5064256;28;20044;-65
2022/09/30 07:31:08;;;;;;;14.27;8.20;;;;;;;8.60;100.00;95971.91;5059509;28;20098;-65
2022/09/30 07:33:34;;;;;;;11.02;8.00;;;;;;;8.57;100.00;95966.41;5061689;28;20041;-65
2022/09/30 07:36:02;;;;;;;12.43;9.38;;;;;;;8.53;100.00;95966.38;5054057;28;20385;-65
2022/09/30 07:38:29;;;;;;;10.57;7.57;;;;;;;8.53;100.00;95965.59;5059981;28;20048;-65
2022/09/30 07:41:01;;;;;;;11.57;7.05;;;;;;;8.58;100.00;95968.00;5063135;28;20044;-66
2022/09/30 07:43:37;;;;;;;12.25;8.23;;;;;;;8.58;100.00;95959.81;5056309;28;20044;-64
2022/09/30 07:46:19;;;;;;;10.30;6.85;;;;;;;8.73;100.00;95966.22;5059511;28;20072;-65
2022/09/30 07:48:47;;;;;;;9.55;6.45;;;;;;;8.57;100.00;95961.75;5060932;28;20040;-66
2022/09/30 07:51:16;;;;;;;8.95;7.05;;;;;;;8.69;100.00;95960.72;5049280;28;20045;-66
2022/09/30 07:53:44;;;;;;;11.00;6.70;;;;;;;8.67;100.00;95957.56;5062767;28;20044;-65
2022/09/30 07:56:11;;;;;;;11.65;6.43;;;;;;;8.80;100.00;95969.84;5047535;28;20044;-66
2022/09/30 07:58:37;;;;;;;9.95;6.70;;;;;;;8.86;100.00;95973.03;5051571;28;20160;-65
2022/09/30 08:01:05;;;;;;;8.32;6.30;;;;;;;8.90;100.00;95979.31;5058876;28;20505;-65
2022/09/30 08:03:33;;;;;;;7.85;5.18;;;;;;;8.83;100.00;95979.22;5060644;28;20121;-65
2022/09/30 08:06:16;;;;;;;8.35;7.07;;;;;;;8.76;100.00;95981.88;5052925;28;20059;-65
2022/09/30 08:08:43;;;;;;;8.75;6.72;;;;;;;8.69;100.00;95985.28;5062508;28;20486;-65
2022/09/30 08:11:09;;;;;;;9.85;6.72;;;;;;;8.67;100.00;95993.06;5056721;28;20135;-65
2022/09/30 08:13:35;;;;;;;10.00;7.40;;;;;;;8.75;100.00;95993.94;5073540;28;20052;-65
2022/09/30 08:16:01;;;;;;;8.85;6.93;;;;;;;8.73;100.00;95998.97;5061000;28;20044;-65
2022/09/30 08:18:27;;;;;;;10.85;7.30;;;;;;;8.74;100.00;96004.06;5051072;28;20052;-67
2022/09/30 08:20:53;;;;;;;8.38;6.40;;;;;;;8.76;100.00;96000.97;5054175;28;20037;-65
2022/09/30 08:23:18;;;;;;;10.07;7.40;;;;;;;8.84;100.00;96008.09;5054620;28;20106;-65
2022/09/30 08:25:44;;;;;;;8.60;6.93;;;;;;;8.76;100.00;96012.69;5061355;28;20036;-67
2022/09/30 08:28:10;;;;;;;8.00;6.35;;;;;;;8.77;100.00;96018.94;5048078;28;20554;-66
2022/09/30 08:30:37;;;;;;;8.40;6.38;;;;;;;8.90;100.00;96030.41;5062127;28;20041;-66
2022/09/30 08:33:03;;;;;;;9.18;6.30;;;;;;;8.92;100.00;96023.41;5059091;28;20053;-63
2022/09/30 08:35:29;;;;;;;8.20;6.38;;;;;;;8.96;100.00;96034.38;5054004;28;20041;-65
2022/09/30 08:37:54;;;;;;;8.43;6.00;;;;;;;8.97;100.00;96028.53;5060186;28;20066;-64
2022/09/30 08:40:29;;;;;;;7.43;5.57;;;;;;;9.07;100.00;96026.31;5058316;28;20037;-66
2022/09/30 08:43:18;;;;;;;8.07;5.97;;;;;;;9.29;100.00;96030.84;5062175;28;20037;-65
2022/09/30 08:46:00;;;;;;;7.72;5.15;;;;;;;9.22;100.00;96021.78;5052900;28;20508;-65
2022/09/30 08:48:54;;;;;;;6.53;4.63;;;;;;;9.22;100.00;96019.03;5051997;28;20106;-65
2022/09/30 08:51:43;;;;;;;8.40;4.60;;;;;;;9.02;100.00;96026.63;5057146;28;20059;-65
2022/09/30 08:54:14;;;;;;;4.72;3.60;;;;;;;8.97;100.00;96030.50;5056326;28;20041;-65
2022/09/30 08:56:41;;;;;;;5.85;3.83;;;;;;;8.99;100.00;96036.38;5051628;28;20122;-66
2022/09/30 08:59:34;;;;;;;5.80;4.20;;;;;;;9.44;100.00;96044.66;5056203;28;20036;-65
2022/09/30 09:02:45;;;;;;;4.00;3.17;;;;;;;9.34;100.00;96054.31;5061044;28;20075;-65
2022/09/30 09:05:24;;;;;;;4.53;2.97;;;;;;;9.10;100.00;96063.81;5053169;28;20090;-65
2022/09/30 09:08:32;;;;;;;6.78;3.55;;;;;;;9.17;100.00;96063.91;5061629;28;20101;-66
2022/09/30 09:11:07;;;;;;;8.27;3.45;;;;;;;9.21;100.00;96064.72;5045803;28;20099;-65
2022/09/30 09:13:33;;;;;;;5.45;3.20;;;;;;;9.29;100.00;96071.03;5052578;28;20498;-65
2022/09/30 09:16:25;;;;;;;4.65;3.13;;;;;;;9.35;100.00;96072.28;5063980;28;20056;-64
2022/09/30 09:19:07;;;;;;;3.95;3.05;;;;;;;9.40;100.00;96079.34;5065294;28;20062;-64
2022/09/30 09:21:52;;;;;;;4.07;3.10;;;;;;;9.09;100.00;96084.88;5062138;28;20110;-63
2022/09/30 09:24:32;;;;;;;4.22;3.38;;;;;;;9.15;100.00;96088.84;5059992;28;20060;-66
2022/09/30 09:26:58;;;;;;;7.03;3.63;;;;;;;9.31;100.00;96088.66;5064730;28;20040;-66
2022/09/30 09:29:44;;;;;;;5.05;3.38;;;;;;;9.30;100.00;96100.72;5064507;28;20048;-65
2022/09/30 09:32:16;;;;;;;4.28;2.70;;;;;;;9.35;100.00;96105.88;5062656;28;20045;-65
2022/09/30 09:34:42;;;;;;;3.92;3.20;;;;;;;9.38;100.00;96093.38;5055401;28;20049;-65
2022/09/30 09:37:17;;;;;;;4.03;2.97;;;;;;;9.45;100.00;96095.41;5058837;28;20047;-65
2022/09/30 09:39:58;;;;;;;13.93;7.68;;;;;;;9.45;100.00;96089.97;5057856;28;20079;-65
2022/09/30 09:42:34;;;;;;;6.07;4.07;;;;;;;9.31;100.00;96099.59;5053633;28;20109;-65
2022/09/30 09:45:07;;;;;;;3.40;2.72;;;;;;;9.31;100.00;96101.50;5065738;28;20044;-65
2022/09/30 09:47:33;;;;;;;4.13;2.88;;;;;;;9.29;100.00;96110.09;5065675;28;20817;-65
2022/09/30 09:50:03;;;;;;;4.43;2.70;;;;;;;9.29;100.00;96109.28;5073609;28;20052;-64
2022/09/30 09:52:46;;;;;;;;;;;;;;;9.55;100.00;96119.38;5062383;28;20135;-65
2022/09/30 09:55:13;;;;;;;5.80;2.72;;;;;;;9.84;100.00;96119.66;5053450;28;20031;-66
2022/09/30 09:57:40;;;;;;;3.40;2.38;;;;;;;9.76;100.00;96113.34;5061171;28;20048;-65
2022/09/30 10:03:20;;;;;;;3.05;2.20;;;;;;;9.83;100.00;96118.06;5062411;28;20543;-65
2022/09/30 10:05:58;;;;;;;3.38;2.60;;;;;;;9.87;100.00;96118.91;5063310;28;20438;-65
2022/09/30 10:08:24;;;;;;;4.35;2.40;;;;;;;9.83;100.00;96120.81;5050170;28;20123;-66
2022/09/30 10:10:52;;;;;;;3.47;2.38;;;;;;;10.00;100.00;96105.75;5062522;28;20144;-65
2022/09/30 10:13:42;;;;;;;4.30;2.15;;;;;;;10.18;100.00;96114.09;5055258;28;20051;-65
2022/09/30 10:16:26;;;;;;;3.30;1.95;;;;;;;9.88;100.00;96115.00;5061447;28;20041;-67
2022/09/30 10:18:52;;;;;;;3.67;2.28;;;;;;;9.75;100.00;96128.94;5066119;28;20050;-65
2022/09/30 10:21:26;;;;;;;3.38;2.20;;;;;;;9.87;100.00;96124.38;5050391;28;20115;-66
2022/09/30 10:23:51;;;;;;;2.70;1.90;;;;;;;9.89;100.00;96128.31;5064286;28;20500;-68
2022/09/30 10:26:20;;;;;;;12.32;7.07;;;;;;;10.00;100.00;96131.16;5056544;28;20033;-66
2022/09/30 10:28:45;;;;;;;3.50;2.30;;;;;;;9.95;100.00;96126.78;5054850;28;20515;-66
2022/09/30 10:31:28;;;;;;;5.00;2.08;;;;;;;9.92;100.00;96137.69;5049890;28;20045;-67
2022/09/30 10:34:03;;;;;;;2.97;2.20;;;;;;;10.04;100.00;96131.19;5063786;28;20131;-66
2022/09/30 10:36:32;;;;;;;2.40;1.90;;;;;;;10.44;100.00;96133.13;5060908;28;20485;-65
2022/09/30 10:39:00;;;;;;;4.55;2.25;;;;;;;10.38;100.00;96142.06;5063778;28;20485;-65
2022/09/30 10:41:30;;;;;;;3.65;2.20;;;;;;;10.34;100.00;96142.03;5059126;28;20063;-64
2022/09/30 10:43:59;;;;;;;3.25;1.70;;;;;;;10.71;100.00;96144.66;5064415;28;20028;-68
2022/09/30 10:46:36;;;;;;;3.90;2.25;;;;;;;10.55;100.00;96146.09;5061261;28;20045;-65
2022/09/30 10:49:09;;;;;;;2.88;1.90;;;;;;;10.90;100.00;96159.25;5067111;28;20044;-65
2022/09/30 10:51:35;;;;;;;3.72;2.20;;;;;;;10.72;100.00;96156.41;5065586;28;20481;-65
2022/09/30 10:54:03;;;;;;;3.05;2.25;;;;;;;10.57;100.00;96158.25;5062343;28;20065;-65
2022/09/30 10:56:36;;;;;;;3.10;2.28;;;;;;;10.72;100.00;96164.63;5061970;28;20044;-66
2022/09/30 10:59:05;;;;;;;2.92;2.25;;;;;;;10.40;100.00;96162.41;5060165;28;20508;-65
2022/09/30 11:01:43;;;;;;;4.67;2.03;;;;;;;10.23;100.00;96161.06;5057047;28;20068;-66
2022/09/30 11:04:25;;;;;;;4.50;2.40;;;;;;;10.35;100.00;96162.75;5056644;28;20361;-66
2022/09/30 11:06:57;;;;;;;3.42;2.25;;;;;;;10.29;100.00;96164.25;5061521;28;20051;-66
2022/09/30 11:09:36;;;;;;;3.22;2.33;;;;;;;10.48;100.00;96169.53;5054986;28;20057;-64
2022/09/30 11:12:16;;;;;;;4.43;2.93;;;;;;;10.52;100.00;96172.28;5061955;28;20040;-68
2022/09/30 11:14:52;;;;;;;3.10;2.45;;;;;;;10.46;100.00;96171.06;5052936;28;20120;-70
2022/09/30 11:17:38;;;;;;;3.17;2.30;;;;;;;10.84;100.00;96171.72;5057204;28;20044;-66
2022/09/30 11:20:22;;;;;;;4.97;2.30;;;;;;;10.92;100.00;96167.09;5058923;28;20060;-63
2022/09/30 11:23:01;;;;;;;4.60;2.75;;;;;;;11.01;100.00;96173.03;5059961;28;20071;-65
2022/09/30 11:25:38;;;;;;;4.85;3.22;;;;;;;10.83;100.00;96175.66;5068211;28;20094;-66
2022/09/30 11:28:32;;;;;;;4.72;3.47;;;;;;;10.61;100.00;96170.03;5068644;28;20106;-63
2022/09/30 11:31:30;;;;;;;3.83;3.10;;;;;;;11.00;100.00;96179.66;5051497;28;20044;-65
2022/09/30 11:34:19;;;;;;;3.38;2.70;;;;;;;10.97;100.00;96175.75;5042007;28;20052;-66
2022/09/30 11:36:57;;;;;;;4.47;3.50;;;;;;;10.80;100.00;96182.66;5066063;28;20045;-65
2022/09/30 11:39:31;;;;;;;3.47;2.95;;;;;;;11.18;100.00;96174.28;5061006;28;20044;-66
2022/09/30 11:42:18;;;;;;;3.85;2.92;;;;;;;11.16;100.00;96171.94;5060331;28;20044;-65
2022/09/30 11:44:44;;;;;;;3.88;3.47;;;;;;;11.36;100.00;96168.91;5049392;28;20052;-66
2022/09/30 11:47:39;;;;;;;4.22;3.22;;;;;;;11.01;100.00;96165.59;5055861;28;20189;-66
2022/09/30 11:50:17;;;;;;;9.23;5.20;;;;;;;11.08;100.00;96173.06;5057384;28;20037;-66
2022/09/30 11:53:05;;;;;;;4.15;3.05;;;;;;;10.97;100.00;96173.00;5062197;28;20045;-65
2022/09/30 11:56:01;;;;;;;3.58;2.92;;;;;;;10.81;100.00;96183.47;5052716;28;20113;-66
2022/09/30 11:58:48;;;;;;;4.95;3.08;;;;;;;11.29;100.00;96180.63;5046200;28;20067;-66